NZOH/OHA METAR and TAF weather

Enter ICAO airport designator
Station Type Date Time Source
NZOH METAR 2019/08/22 18:00 UTC NOAA

NZOH 221800Z 01004KT 20KM VCSH FEW040 BKN050 08/07 Q0994 TEMPO FM0730 6000 RA


Station Type Date Time Source
NZOH Decoded METAR 2019/08/22 18:00 UTC NOAA

Station name not available
Aug 22, 2019 - 02:00 PM EDT / 2019.08.22 1800 UTC
Wind: from the N (010 degrees) at 5 MPH (4 KT):0
Sky conditions: mostly cloudy
Weather: showers in the vicinity
Temperature: 46 F (8 C)
Dew Point: 44 F (7 C)
Relative Humidity: 93%
Pressure (altimeter): 29.35 in. Hg (0994 hPa)
ob: NZOH 221800Z 01004KT 20KM VCSH FEW040 BKN050 08/07 Q0994 TEMPO FM0730 6000 RA
cycle: 18

Station Type Date Time Source
NZOH TAF 2007/12/14 04:59 UTC NOAA

TAF NZOH 140459Z 140606 11020KT 30KM SCT080 BECMH 0911 03008KT
BECMG 2224 27012KT

Example: see airport list